TimeMST,TemperatureF,Dew PointF,Humidity,Sea Level PressureIn,VisibilityMPH,Wind Direction,Wind SpeedMPH,Gust SpeedMPH,PrecipitationIn,Events,Conditions,WindDirDegrees,DateUTC
12:15 AM,33.8,8.6,35,30.18,10.0,Calm,Calm,-,N/A,,Clear,0,2014-01-16 07:15:00
12:35 AM,35.6,8.6,33,30.17,10.0,SE,3.5,-,N/A,,Clear,130,2014-01-16 07:35:00
12:55 AM,32.0,8.6,38,30.18,10.0,Calm,Calm,-,N/A,,Clear,0,2014-01-16 07:55:00
1:15 AM,32.0,8.6,38,30.18,10.0,Calm,Calm,-,N/A,,Clear,0,2014-01-16 08:15:00
1:35 AM,32.0,8.6,38,30.18,10.0,NE,3.5,-,N/A,,Clear,40,2014-01-16 08:35:00
1:55 AM,32.0,10.4,41,30.18,10.0,Calm,Calm,-,N/A,,Clear,0,2014-01-16 08:55:00
2:15 AM,32.0,10.4,41,30.18,10.0,NNE,3.5,-,N/A,,Clear,30,2014-01-16 09:15:00
2:35 AM,30.2,10.4,44,30.17,10.0,NNE,3.5,-,N/A,,Clear,20,2014-01-16 09:35:00
2:55 AM,28.4,10.4,47,30.16,10.0,North,4.6,-,N/A,,Clear,10,2014-01-16 09:55:00
3:15 AM,30.2,10.4,44,30.16,10.0,North,5.8,-,N/A,,Clear,360,2014-01-16 10:15:00
3:35 AM,26.6,10.4,51,30.15,10.0,North,5.8,-,N/A,,Clear,350,2014-01-16 10:35:00
3:55 AM,33.8,10.4,38,30.14,10.0,North,8.1,-,N/A,,Clear,10,2014-01-16 10:55:00
4:15 AM,30.2,10.4,44,30.14,10.0,North,10.4,-,N/A,,Clear,360,2014-01-16 11:15:00
4:35 AM,32.0,12.2,44,30.14,10.0,North,9.2,-,N/A,,Clear,10,2014-01-16 11:35:00
4:55 AM,24.8,8.6,50,30.15,10.0,SSE,8.1,-,N/A,,Clear,160,2014-01-16 11:55:00
5:15 AM,21.2,10.4,63,30.16,10.0,SE,5.8,-,N/A,,Clear,130,2014-01-16 12:15:00
5:35 AM,21.2,10.4,63,30.16,10.0,ESE,5.8,-,N/A,,Clear,120,2014-01-16 12:35:00
5:55 AM,21.2,8.6,58,30.16,10.0,ENE,4.6,-,N/A,,Clear,70,2014-01-16 12:55:00
6:15 AM,21.2,8.6,58,30.17,10.0,ESE,3.5,-,N/A,,Clear,120,2014-01-16 13:15:00
6:35 AM,24.8,10.4,54,30.18,10.0,Calm,Calm,-,N/A,,Clear,0,2014-01-16 13:35:00
6:55 AM,26.6,10.4,51,30.18,10.0,NNW,3.5,-,N/A,,Clear,340,2014-01-16 13:55:00
7:15 AM,24.8,10.4,54,30.19,10.0,North,3.5,-,N/A,,Clear,360,2014-01-16 14:15:00
7:35 AM,26.6,10.4,51,30.19,10.0,NE,6.9,-,N/A,,Clear,40,2014-01-16 14:35:00
7:55 AM,35.6,12.2,38,30.20,10.0,NNE,6.9,-,N/A,,Clear,20,2014-01-16 14:55:00
8:15 AM,41.0,14.0,33,30.20,10.0,North,5.8,-,N/A,,Clear,350,2014-01-16 15:15:00
8:35 AM,44.6,14.0,29,30.20,10.0,NNW,3.5,-,N/A,,Clear,340,2014-01-16 15:35:00
8:55 AM,46.4,14.0,27,30.21,10.0,North,4.6,-,N/A,,Clear,360,2014-01-16 15:55:00
9:15 AM,50.0,14.0,24,30.22,10.0,NNW,6.9,-,N/A,,Clear,340,2014-01-16 16:15:00
9:35 AM,50.0,12.2,22,30.21,10.0,NW,9.2,-,N/A,,Clear,320,2014-01-16 16:35:00
9:55 AM,50.0,14.0,24,30.22,10.0,NNW,11.5,-,N/A,,Clear,330,2014-01-16 16:55:00
10:15 AM,53.6,12.2,19,30.22,10.0,NNW,11.5,-,N/A,,Clear,330,2014-01-16 17:15:00
10:35 AM,53.6,12.2,19,30.21,10.0,NW,12.7,-,N/A,,Clear,320,2014-01-16 17:35:00
10:55 AM,55.4,12.2,18,30.20,10.0,WNW,6.9,-,N/A,,Clear,300,2014-01-16 17:55:00
11:15 AM,55.4,12.2,18,30.20,10.0,WNW,3.5,-,N/A,,Clear,300,2014-01-16 18:15:00
11:35 AM,57.2,12.2,17,30.19,10.0,WNW,5.8,-,N/A,,Clear,290,2014-01-16 18:35:00
11:55 AM,57.2,12.2,17,30.18,10.0,WNW,3.5,-,N/A,,Clear,290,2014-01-16 18:55:00
12:15 PM,57.2,14.0,18,30.17,10.0,NE,3.5,-,N/A,,Clear,40,2014-01-16 19:15:00
12:35 PM,59.0,14.0,17,30.16,10.0,SSE,6.9,-,N/A,,Clear,160,2014-01-16 19:35:00
12:55 PM,59.0,14.0,17,30.15,10.0,ESE,3.5,-,N/A,,Clear,120,2014-01-16 19:55:00
1:35 PM,60.8,14.0,16,30.14,10.0,SSE,4.6,-,N/A,,Clear,160,2014-01-16 20:35:00
1:55 PM,62.6,14.0,15,30.13,10.0,SSW,4.6,-,N/A,,Clear,200,2014-01-16 20:55:00
2:15 PM,62.6,14.0,15,30.14,10.0,SSE,5.8,-,N/A,,Clear,150,2014-01-16 21:15:00
2:35 PM,62.6,12.2,14,30.14,10.0,South,4.6,-,N/A,,Clear,180,2014-01-16 21:35:00
2:55 PM,62.6,12.2,14,30.14,10.0,SW,8.1,-,N/A,,Clear,220,2014-01-16 21:55:00
3:15 PM,62.6,12.2,14,30.14,10.0,WSW,6.9,-,N/A,,Clear,240,2014-01-16 22:15:00
3:35 PM,60.8,10.4,14,30.15,10.0,South,6.9,-,N/A,,Clear,190,2014-01-16 22:35:00
3:55 PM,60.8,12.2,15,30.15,10.0,South,3.5,-,N/A,,Clear,170,2014-01-16 22:55:00
4:15 PM,60.8,12.2,15,30.15,10.0,SSW,4.6,-,N/A,,Clear,200,2014-01-16 23:15:00
4:35 PM,60.8,14.0,16,30.15,10.0,SSW,5.8,-,N/A,,Clear,210,2014-01-16 23:35:00
4:55 PM,57.2,14.0,18,30.15,10.0,South,6.9,-,N/A,,Clear,180,2014-01-16 23:55:00
5:15 PM,51.8,14.0,22,30.16,10.0,South,6.9,-,N/A,,Clear,190,2014-01-17 00:15:00
5:35 PM,51.8,14.0,22,30.17,10.0,South,4.6,-,N/A,,Clear,170,2014-01-17 00:35:00
5:55 PM,50.0,14.0,24,30.17,10.0,SW,3.5,-,N/A,,Clear,220,2014-01-17 00:55:00
6:15 PM,51.8,12.2,21,30.17,10.0,Calm,Calm,-,N/A,,Clear,0,2014-01-17 01:15:00
6:35 PM,44.6,14.0,29,30.17,10.0,South,5.8,-,N/A,,Clear,170,2014-01-17 01:35:00
6:55 PM,42.8,10.4,27,30.17,10.0,Calm,Calm,-,N/A,,Clear,0,2014-01-17 01:55:00
7:15 PM,46.4,10.4,23,30.18,10.0,Calm,Calm,-,N/A,,Clear,0,2014-01-17 02:15:00
7:35 PM,42.8,10.4,27,30.19,10.0,Calm,Calm,-,N/A,,Clear,0,2014-01-17 02:35:00
7:55 PM,44.6,12.2,27,30.19,10.0,WSW,5.8,-,N/A,,Clear,240,2014-01-17 02:55:00
8:15 PM,41.0,12.2,31,30.20,10.0,Calm,Calm,-,N/A,,Clear,0,2014-01-17 03:15:00
8:35 PM,39.2,12.2,33,30.20,10.0,Calm,Calm,-,N/A,,Clear,0,2014-01-17 03:35:00
8:55 PM,39.2,12.2,33,30.21,10.0,Calm,Calm,-,N/A,,Clear,0,2014-01-17 03:55:00
9:15 PM,39.2,12.2,33,30.22,10.0,Calm,Calm,-,N/A,,Clear,0,2014-01-17 04:15:00
9:35 PM,39.2,12.2,33,30.22,10.0,Calm,Calm,-,N/A,,Clear,0,2014-01-17 04:35:00
9:55 PM,35.6,12.2,38,30.23,10.0,West,5.8,-,N/A,,Clear,280,2014-01-17 04:55:00
10:15 PM,33.8,12.2,41,30.23,10.0,NW,9.2,-,N/A,,Clear,310,2014-01-17 05:15:00
10:35 PM,33.8,12.2,41,30.23,10.0,NNW,6.9,-,N/A,,Clear,340,2014-01-17 05:35:00
10:55 PM,32.0,12.2,44,30.24,10.0,NNE,9.2,-,N/A,,Clear,30,2014-01-17 05:55:00
11:15 PM,33.8,14.0,44,30.23,10.0,NE,10.4,-,N/A,,Clear,50,2014-01-17 06:15:00
11:35 PM,35.6,14.0,41,30.24,10.0,NNE,9.2,-,N/A,,Clear,20,2014-01-17 06:35:00
11:55 PM,37.4,14.0,38,30.25,10.0,NNE,9.2,-,N/A,,Clear,20,2014-01-17 06:55:00